Time;durP1;ratioP1;P1;durP2;ratioP2;P2;SDS_P1;SDS_P2;PMS_P1;PMS_P2;Temp;Humidity;BMP_temperature;BMP_pressure;BME280_temperature;BME280_humidity;BME280_pressure;Samples;Min_cycle;Max_cycle;Signal;HPM_P1;HPM_P2
2021/05/29 00:01:19;;;;;;;2.30;1.48;;;21.10;52.30;;;;;;5053500;28;20497;-57
2021/05/29 00:03:47;;;;;;;1.60;1.10;;;21.10;52.30;;;;;;5052282;28;20041;-57
2021/05/29 00:06:15;;;;;;;1.38;1.20;;;21.10;52.30;;;;;;5051779;28;20480;-57
2021/05/29 00:08:43;;;;;;;1.98;1.50;;;21.10;52.30;;;;;;5052168;28;20107;-54
2021/05/29 00:11:11;;;;;;;1.50;1.20;;;21.10;52.30;;;;;;5052526;28;20056;-57
2021/05/29 00:13:40;;;;;;;2.17;1.50;;;21.10;52.30;;;;;;5051520;28;20501;-57
2021/05/29 00:16:09;;;;;;;1.65;1.23;;;21.10;52.30;;;;;;5052109;28;20053;-57
2021/05/29 00:18:40;;;;;;;2.40;1.38;;;21.10;52.30;;;;;;5053492;28;20047;-57
2021/05/29 00:21:07;;;;;;;3.30;1.23;;;21.10;52.30;;;;;;5053399;28;20041;-58
2021/05/29 00:23:36;;;;;;;2.78;1.55;;;21.10;52.30;;;;;;5053338;28;20040;-57
2021/05/29 00:26:04;;;;;;;1.80;1.20;;;21.10;52.30;;;;;;5052965;28;20110;-56
2021/05/29 00:28:31;;;;;;;2.17;1.38;;;21.10;52.30;;;;;;5047062;28;20042;-56
2021/05/29 00:30:58;;;;;;;1.67;1.27;;;21.10;52.30;;;;;;5042072;28;20059;-57
2021/05/29 00:33:25;;;;;;;1.80;1.20;;;21.10;52.30;;;;;;5053008;28;20045;-53
2021/05/29 00:35:52;;;;;;;1.25;1.10;;;21.10;52.30;;;;;;5052898;28;20505;-55
2021/05/29 00:38:19;;;;;;;3.63;1.35;;;21.10;52.30;;;;;;5053917;28;20044;-55
2021/05/29 00:40:47;;;;;;;3.20;1.35;;;21.10;52.40;;;;;;5053811;28;20064;-55
2021/05/29 00:43:14;;;;;;;2.78;1.35;;;21.10;52.40;;;;;;5054117;28;20424;-56
2021/05/29 00:45:41;;;;;;;3.20;1.40;;;21.10;52.30;;;;;;5054605;28;20048;-56
2021/05/29 00:48:08;;;;;;;2.30;1.50;;;21.10;52.40;;;;;;5052830;28;20072;-56
2021/05/29 00:50:47;;;;;;;1.92;1.25;;;21.10;52.40;;;;;;5051855;28;20060;-57
2021/05/29 00:53:18;;;;;;;1.98;1.40;;;21.10;52.40;;;;;;5052509;28;20064;-57
2021/05/29 00:55:46;;;;;;;1.83;1.33;;;21.10;52.40;;;;;;5052271;28;20136;-57
2021/05/29 00:58:13;;;;;;;2.42;1.42;;;21.10;52.40;;;;;;5052149;28;20102;-57
2021/05/29 01:00:41;;;;;;;1.55;1.25;;;21.10;52.40;;;;;;5051720;28;20056;-57
2021/05/29 01:03:08;;;;;;;1.67;1.25;;;21.10;52.40;;;;;;5035290;28;20077;-57
2021/05/29 01:05:36;;;;;;;2.65;1.50;;;21.10;52.40;;;;;;5051320;28;20048;-58
2021/05/29 01:08:04;;;;;;;1.48;1.17;;;21.10;52.40;;;;;;5052431;28;20048;-58
2021/05/29 01:10:32;;;;;;;2.58;1.60;;;21.00;52.30;;;;;;5052444;28;20048;-57
2021/05/29 01:13:01;;;;;;;1.95;1.40;;;21.10;52.50;;;;;;5039139;28;20099;-58
2021/05/29 01:15:39;;;;;;;2.40;1.20;;;21.00;52.40;;;;;;5037005;28;20049;-57
2021/05/29 01:18:10;;;;;;;1.60;1.17;;;21.00;52.40;;;;;;5037104;28;20516;-57
2021/05/29 01:20:38;;;;;;;2.33;1.30;;;21.10;52.50;;;;;;5035782;28;20123;-54
2021/05/29 01:23:06;;;;;;;2.25;1.30;;;21.00;52.40;;;;;;5048949;28;20053;-58
2021/05/29 01:25:39;;;;;;;2.03;1.30;;;21.10;52.50;;;;;;5052337;28;20497;-57
2021/05/29 01:28:14;;;;;;;2.25;1.50;;;21.00;52.40;;;;;;5053413;28;20037;-54
2021/05/29 01:30:49;;;;;;;3.03;1.50;;;21.00;52.40;;;;;;5052405;28;20053;-57
2021/05/29 01:33:20;;;;;;;1.98;1.30;;;21.00;52.40;;;;;;5053599;28;20049;-58
2021/05/29 01:35:48;;;;;;;2.13;1.40;;;21.00;52.40;;;;;;5053286;28;20060;-58
2021/05/29 01:38:21;;;;;;;2.08;1.48;;;21.00;52.40;;;;;;5059766;28;20085;-56
2021/05/29 01:40:50;;;;;;;1.20;1.05;;;21.00;52.50;;;;;;5036695;28;20042;-54
2021/05/29 01:43:18;;;;;;;1.85;1.20;;;21.00;52.40;;;;;;5045931;28;20053;-58
2021/05/29 01:45:46;;;;;;;1.80;1.27;;;21.00;52.50;;;;;;5053022;28;20550;-55
2021/05/29 01:48:17;;;;;;;1.55;1.08;;;21.00;52.50;;;;;;5051289;28;20128;-57
2021/05/29 01:50:48;;;;;;;2.17;1.20;;;21.10;52.50;;;;;;5050835;28;20049;-58
2021/05/29 01:53:20;;;;;;;1.83;1.40;;;21.00;52.50;;;;;;5051792;28;20052;-57
2021/05/29 01:55:47;;;;;;;2.88;1.25;;;21.00;52.50;;;;;;5053130;28;20049;-57
2021/05/29 01:58:15;;;;;;;3.08;1.50;;;21.00;52.50;;;;;;5047783;28;20056;-57
2021/05/29 02:00:43;;;;;;;2.22;1.30;;;21.00;52.50;;;;;;5040260;28;20056;-58
2021/05/29 02:03:10;;;;;;;3.78;1.60;;;21.00;52.50;;;;;;5050987;28;20037;-57
2021/05/29 02:05:39;;;;;;;1.65;1.20;;;21.00;52.50;;;;;;5049148;28;20099;-56
2021/05/29 02:08:09;;;;;;;2.05;1.20;;;21.00;52.50;;;;;;5042656;28;20072;-57
2021/05/29 02:10:38;;;;;;;2.08;1.20;;;21.00;52.50;;;;;;5050492;28;20132;-57
2021/05/29 02:13:11;;;;;;;1.50;1.10;;;21.00;52.50;;;;;;5036117;28;20098;-55
2021/05/29 02:15:40;;;;;;;2.40;1.08;;;21.00;52.50;;;;;;5053257;28;20823;-57
2021/05/29 02:18:11;;;;;;;2.33;1.30;;;21.00;52.50;;;;;;5052041;28;20447;-58
2021/05/29 02:20:42;;;;;;;1.52;1.10;;;21.00;52.50;;;;;;5036289;28;20120;-58
2021/05/29 02:23:14;;;;;;;1.75;1.27;;;21.00;52.60;;;;;;5035270;28;20037;-58
2021/05/29 02:25:42;;;;;;;1.73;1.10;;;21.00;52.50;;;;;;5034228;28;20053;-57
2021/05/29 02:28:09;;;;;;;2.20;1.27;;;21.00;52.50;;;;;;5052720;28;20094;-58
2021/05/29 02:30:36;;;;;;;2.13;1.27;;;21.00;52.50;;;;;;5051465;28;20049;-58
2021/05/29 02:33:05;;;;;;;1.65;1.30;;;21.00;52.60;;;;;;5051869;28;20057;-58
2021/05/29 02:35:32;;;;;;;1.30;1.20;;;21.00;52.60;;;;;;5035411;28;20077;-58
2021/05/29 02:38:00;;;;;;;1.92;1.10;;;21.00;52.60;;;;;;5055308;28;20098;-57
2021/05/29 02:40:27;;;;;;;1.45;1.20;;;21.00;52.60;;;;;;5041771;28;20444;-56
2021/05/29 02:42:55;;;;;;;1.90;1.55;;;21.00;52.60;;;;;;5052483;28;20045;-57
2021/05/29 02:45:24;;;;;;;1.70;1.13;;;21.00;52.60;;;;;;5044358;28;20053;-57
2021/05/29 02:47:52;;;;;;;1.98;1.50;;;21.00;52.60;;;;;;5051797;28;20091;-57
2021/05/29 02:50:19;;;;;;;2.55;1.45;;;21.00;52.60;;;;;;5056354;28;20053;-58
2021/05/29 02:52:47;;;;;;;1.95;1.40;;;21.00;52.60;;;;;;5054684;28;20060;-58
2021/05/29 02:55:21;;;;;;;2.20;1.20;;;21.00;52.60;;;;;;5053907;28;20049;-56
2021/05/29 02:57:48;;;;;;;;;;;21.00;52.70;;;;;;5054223;28;20468;-58
2021/05/29 03:00:16;;;;;;;2.28;1.48;;;21.00;52.60;;;;;;5053403;28;19921;-56
2021/05/29 03:02:44;;;;;;;2.00;1.33;;;21.00;52.70;;;;;;5047168;28;20428;-57
2021/05/29 03:05:13;;;;;;;2.65;1.45;;;21.00;52.70;;;;;;5045529;28;20053;-57
2021/05/29 03:07:40;;;;;;;1.65;1.10;;;21.00;52.70;;;;;;5045571;28;20040;-58
2021/05/29 03:10:08;;;;;;;3.15;1.40;;;21.00;52.70;;;;;;5055009;28;20458;-56
2021/05/29 03:12:39;;;;;;;3.17;1.33;;;21.00;52.70;;;;;;5054866;28;20096;-58
2021/05/29 03:15:13;;;;;;;2.08;1.48;;;21.00;52.70;;;;;;5050484;28;20049;-57
2021/05/29 03:17:42;;;;;;;2.00;1.33;;;21.00;52.70;;;;;;5042595;28;20479;-57
2021/05/29 03:20:14;;;;;;;3.35;1.50;;;21.00;52.70;;;;;;5054242;28;20048;-57
2021/05/29 03:22:43;;;;;;;2.17;1.23;;;21.00;52.70;;;;;;5051101;28;20814;-57
2021/05/29 03:25:12;;;;;;;2.17;1.30;;;21.00;52.70;;;;;;5041624;28;20057;-58
2021/05/29 03:27:40;;;;;;;2.97;1.35;;;21.00;52.70;;;;;;5055527;28;20091;-57
2021/05/29 03:30:11;;;;;;;2.10;1.20;;;21.00;52.70;;;;;;5055238;28;20504;-58
2021/05/29 03:32:38;;;;;;;2.40;1.60;;;21.00;52.60;;;;;;5039795;28;20048;-57
2021/05/29 03:35:10;;;;;;;2.00;1.30;;;21.00;52.60;;;;;;5055458;28;20083;-57
2021/05/29 03:37:38;;;;;;;2.35;1.40;;;21.00;52.70;;;;;;5036658;28;20041;-57
2021/05/29 03:40:07;;;;;;;1.90;1.27;;;21.00;52.60;;;;;;5054168;28;20110;-57
2021/05/29 03:42:35;;;;;;;3.25;1.27;;;21.00;52.60;;;;;;5053152;28;20068;-57
2021/05/29 03:45:04;;;;;;;4.10;1.20;;;21.00;52.60;;;;;;5055460;28;20103;-57
2021/05/29 03:47:32;;;;;;;1.80;1.25;;;21.00;52.60;;;;;;5054031;28;20048;-57
2021/05/29 03:49:59;;;;;;;1.33;1.10;;;21.00;52.60;;;;;;5053398;28;20041;-57
2021/05/29 03:52:26;;;;;;;1.55;1.10;;;21.00;52.60;;;;;;5052780;28;20057;-57
2021/05/29 03:54:53;;;;;;;1.80;1.10;;;21.00;52.60;;;;;;5053717;28;20060;-57
2021/05/29 03:57:20;;;;;;;1.50;1.10;;;21.00;52.60;;;;;;5040094;28;20045;-57
2021/05/29 03:59:48;;;;;;;2.10;1.23;;;21.10;52.70;;;;;;5050283;28;20080;-57
2021/05/29 04:02:15;;;;;;;1.98;1.42;;;21.00;52.60;;;;;;5053639;28;20044;-57
2021/05/29 04:04:42;;;;;;;1.65;1.20;;;21.00;52.60;;;;;;5055029;28;20452;-56
2021/05/29 04:07:09;;;;;;;1.85;1.25;;;21.00;52.60;;;;;;5046811;28;20132;-57
2021/05/29 04:09:36;;;;;;;2.40;1.52;;;21.10;52.70;;;;;;5045762;28;20096;-56
2021/05/29 04:12:04;;;;;;;2.30;1.52;;;21.00;52.60;;;;;;5045476;28;20052;-56
2021/05/29 04:14:34;;;;;;;1.70;1.38;;;21.00;52.60;;;;;;5048557;28;20413;-56
2021/05/29 04:17:02;;;;;;;2.05;1.63;;;21.00;52.60;;;;;;5037270;28;20567;-57
2021/05/29 04:19:29;;;;;;;1.90;1.30;;;21.10;52.70;;;;;;5042774;28;20049;-57
2021/05/29 04:21:57;;;;;;;1.50;1.15;;;21.00;52.60;;;;;;5049745;28;20079;-56
2021/05/29 04:24:24;;;;;;;2.08;1.20;;;21.00;52.60;;;;;;5042291;28;20041;-57
2021/05/29 04:26:52;;;;;;;1.67;1.10;;;21.10;52.70;;;;;;5056263;28;20040;-57
2021/05/29 04:29:19;;;;;;;2.67;1.30;;;21.00;52.60;;;;;;5068435;28;20397;-56
2021/05/29 04:31:46;;;;;;;2.67;1.35;;;21.10;52.90;;;;;;5053969;28;20064;-57
2021/05/29 04:34:13;;;;;;;1.88;1.13;;;21.00;52.60;;;;;;5054348;28;20098;-57
2021/05/29 04:36:40;;;;;;;1.23;1.10;;;21.00;52.60;;;;;;5054386;28;20400;-56
2021/05/29 04:39:08;;;;;;;1.80;1.20;;;21.00;52.60;;;;;;5051292;28;20106;-56
2021/05/29 04:41:35;;;;;;;2.20;1.20;;;21.00;52.60;;;;;;5053890;28;20045;-57
2021/05/29 04:44:02;;;;;;;2.75;1.30;;;21.10;52.70;;;;;;5053044;28;20041;-57
2021/05/29 04:46:30;;;;;;;1.75;1.48;;;21.10;52.70;;;;;;5051796;28;20045;-57
2021/05/29 04:48:57;;;;;;;1.35;1.08;;;21.00;52.70;;;;;;5053010;28;20045;-56
2021/05/29 04:51:24;;;;;;;1.92;1.23;;;21.00;52.60;;;;;;5052940;28;20048;-57
2021/05/29 04:53:51;;;;;;;1.52;1.30;;;21.00;52.60;;;;;;5051398;28;20053;-57
2021/05/29 04:56:19;;;;;;;1.65;1.27;;;21.10;52.70;;;;;;5052399;28;20496;-57
2021/05/29 04:58:46;;;;;;;2.55;1.67;;;21.10;52.70;;;;;;5052625;28;20052;-57
2021/05/29 05:01:13;;;;;;;3.70;1.20;;;21.10;52.70;;;;;;5040652;28;20075;-56
2021/05/29 05:03:41;;;;;;;1.83;1.23;;;21.10;52.60;;;;;;5046763;28;20041;-57
2021/05/29 05:06:08;;;;;;;1.42;1.20;;;21.10;52.60;;;;;;5048075;28;20090;-57
2021/05/29 05:08:35;;;;;;;2.20;1.38;;;21.10;52.50;;;;;;5044914;28;20065;-56
2021/05/29 05:11:03;;;;;;;1.80;1.30;;;21.20;52.60;;;;;;5043775;28;20060;-57
2021/05/29 05:13:30;;;;;;;2.08;1.48;;;21.20;52.50;;;;;;5052259;28;20554;-57
2021/05/29 05:15:57;;;;;;;1.50;1.20;;;21.20;52.50;;;;;;5053274;28;20485;-57
2021/05/29 05:18:24;;;;;;;1.17;1.08;;;21.20;52.40;;;;;;5053657;28;20095;-57
2021/05/29 05:20:52;;;;;;;1.83;1.35;;;21.20;52.50;;;;;;5053194;28;20037;-57
2021/05/29 05:23:22;;;;;;;1.75;1.08;;;21.20;52.40;;;;;;5050365;28;20448;-56
2021/05/29 05:25:51;;;;;;;2.05;1.40;;;21.20;52.40;;;;;;5039458;28;20058;-57
2021/05/29 05:28:27;;;;;;;1.63;1.20;;;21.30;52.40;;;;;;5052282;28;20091;-57
2021/05/29 05:30:59;;;;;;;2.42;1.58;;;21.30;52.40;;;;;;5053464;28;20049;-57
2021/05/29 05:33:27;;;;;;;1.67;1.33;;;21.30;52.30;;;;;;5052419;28;20041;-57
2021/05/29 05:35:54;;;;;;;1.65;1.20;;;21.30;52.20;;;;;;5052237;28;20044;-56
2021/05/29 05:38:22;;;;;;;1.65;1.20;;;21.40;52.20;;;;;;5051016;28;20075;-57
2021/05/29 05:40:49;;;;;;;1.65;1.40;;;21.40;52.20;;;;;;5051974;28;20036;-57
2021/05/29 05:43:16;;;;;;;2.97;1.13;;;21.40;52.10;;;;;;5051507;28;20041;-55
2021/05/29 05:45:44;;;;;;;2.22;1.20;;;21.50;52.10;;;;;;5050530;28;20068;-57
2021/05/29 05:48:11;;;;;;;1.92;1.40;;;21.50;52.10;;;;;;5033440;28;20100;-57
2021/05/29 05:50:51;;;;;;;2.17;1.40;;;21.50;52.60;;;;;;5052011;28;20087;-57
2021/05/29 05:53:21;;;;;;;2.10;1.33;;;21.60;52.00;;;;;;5054080;28;20057;-57
2021/05/29 05:56:03;;;;;;;3.10;1.20;;;21.60;51.80;;;;;;5051915;28;20053;-56
2021/05/29 05:58:32;;;;;;;1.70;1.42;;;21.60;51.80;;;;;;5053482;28;20075;-57
2021/05/29 06:01:00;;;;;;;1.40;1.17;;;21.60;51.70;;;;;;5034738;28;20456;-55
2021/05/29 06:03:28;;;;;;;1.52;1.17;;;21.70;51.80;;;;;;5035513;28;20076;-56
2021/05/29 06:05:56;;;;;;;2.17;1.13;;;21.70;51.70;;;;;;5034853;28;20041;-56
2021/05/29 06:08:23;;;;;;;1.40;1.10;;;21.70;51.60;;;;;;5051635;28;20458;-57
2021/05/29 06:10:51;;;;;;;1.60;1.23;;;21.70;51.60;;;;;;5038670;28;20564;-55
2021/05/29 06:21:24;;;;;;;1.70;1.27;;;21.90;51.40;;;;;;5054397;28;20041;-57
2021/05/29 06:23:51;;;;;;;3.70;1.25;;;21.90;51.40;;;;;;5057606;28;20045;-57
2021/05/29 06:26:19;;;;;;;1.95;1.40;;;21.90;51.30;;;;;;5055337;28;20041;-58
2021/05/29 06:28:46;;;;;;;1.45;1.10;;;21.90;51.30;;;;;;5056427;28;20489;-57
2021/05/29 06:31:13;;;;;;;1.85;1.30;;;21.90;51.20;;;;;;5056714;28;20112;-56
2021/05/29 06:33:40;;;;;;;2.38;1.30;;;21.90;51.20;;;;;;5055194;28;20045;-57
2021/05/29 06:36:08;;;;;;;2.00;1.30;;;21.90;51.20;;;;;;5054135;28;20095;-57
2021/05/29 06:38:36;;;;;;;1.25;1.08;;;21.90;51.20;;;;;;5056610;28;20064;-58
2021/05/29 06:41:04;;;;;;;1.45;1.10;;;21.90;51.20;;;;;;5056169;28;20106;-57
2021/05/29 06:43:31;;;;;;;2.30;1.17;;;21.90;51.30;;;;;;5055089;28;20073;-58
2021/05/29 06:45:58;;;;;;;2.17;1.30;;;21.90;51.20;;;;;;5070436;28;20095;-58
2021/05/29 06:48:26;;;;;;;2.45;1.33;;;21.90;51.20;;;;;;5048592;28;20448;-58
2021/05/29 06:50:55;;;;;;;2.50;1.35;;;21.80;51.10;;;;;;5039996;28;20390;-58
2021/05/29 06:53:35;;;;;;;1.88;1.13;;;21.80;51.20;;;;;;5043408;28;20057;-57
2021/05/29 06:58:49;;;;;;;1.60;1.15;;;21.80;51.30;;;;;;5037278;28;20505;-58
2021/05/29 07:01:23;;;;;;;1.65;1.10;;;21.80;51.30;;;;;;5059225;28;20044;-58
2021/05/29 07:03:53;;;;;;;1.60;1.20;;;21.80;51.30;;;;;;5054770;28;20095;-57
2021/05/29 07:06:22;;;;;;;0.88;0.80;;;21.80;51.40;;;;;;5050241;28;20429;-58
2021/05/29 07:08:49;;;;;;;1.45;1.13;;;21.80;51.40;;;;;;5051663;28;20106;-57
2021/05/29 07:11:18;;;;;;;1.90;1.17;;;21.80;51.40;;;;;;5056144;28;20069;-58
2021/05/29 07:13:47;;;;;;;1.60;1.20;;;21.80;51.40;;;;;;5054461;28;20045;-58
2021/05/29 07:16:15;;;;;;;1.67;1.30;;;21.80;51.40;;;;;;5054691;28;20452;-57
2021/05/29 07:18:45;;;;;;;2.00;1.10;;;21.80;51.40;;;;;;5054269;28;20091;-58
2021/05/29 07:21:14;;;;;;;1.58;1.15;;;21.90;51.40;;;;;;5053078;28;20795;-58
2021/05/29 07:23:43;;;;;;;1.17;1.00;;;21.90;51.30;;;;;;5053196;28;20472;-58
2021/05/29 07:26:11;;;;;;;1.75;1.30;;;22.00;51.30;;;;;;5053854;28;20040;-58
2021/05/29 07:28:38;;;;;;;2.22;1.05;;;22.00;51.20;;;;;;5036781;28;20041;-58
2021/05/29 07:31:06;;;;;;;1.60;1.00;;;22.10;51.10;;;;;;5054135;28;20124;-58
2021/05/29 07:33:33;;;;;;;1.25;0.98;;;22.10;51.00;;;;;;5054007;28;20114;-58
2021/05/29 07:36:01;;;;;;;1.58;1.10;;;22.20;51.00;;;;;;5035958;28;20051;-56
2021/05/29 07:38:28;;;;;;;1.35;1.13;;;22.20;50.80;;;;;;5054713;28;20049;-57
2021/05/29 07:40:55;;;;;;;2.45;1.65;;;22.30;50.70;;;;;;5038179;28;20045;-58
2021/05/29 07:43:22;;;;;;;2.67;1.17;;;22.40;50.60;;;;;;5053007;28;20088;-58
2021/05/29 07:45:50;;;;;;;1.38;0.90;;;22.40;50.40;;;;;;5039588;28;20045;-58
2021/05/29 07:48:17;;;;;;;1.25;0.95;;;22.50;50.40;;;;;;5037399;28;20077;-57
2021/05/29 07:50:58;;;;;;;1.15;0.90;;;22.50;50.20;;;;;;5037142;28;20056;-58
2021/05/29 07:53:27;;;;;;;2.17;1.33;;;22.50;50.20;;;;;;5037990;28;20128;-58
2021/05/29 07:55:55;;;;;;;2.05;1.20;;;22.60;50.00;;;;;;5037044;28;20050;-57
2021/05/29 07:58:23;;;;;;;1.63;1.23;;;22.60;49.90;;;;;;5048730;28;20053;-58
2021/05/29 08:00:51;;;;;;;1.65;1.08;;;22.70;49.90;;;;;;5053581;28;20077;-58
2021/05/29 08:03:22;;;;;;;1.80;1.10;;;22.70;49.80;;;;;;5044284;28;20052;-58
2021/05/29 08:05:51;;;;;;;1.58;1.02;;;22.70;49.70;;;;;;5040646;28;20546;-57
2021/05/29 08:08:20;;;;;;;1.83;1.20;;;22.70;49.60;;;;;;5054391;28;20041;-57
2021/05/29 08:10:49;;;;;;;1.23;0.95;;;22.70;49.50;;;;;;5053383;28;20052;-57
2021/05/29 08:13:18;;;;;;;1.42;0.98;;;22.80;49.50;;;;;;5054870;28;20063;-57
2021/05/29 08:15:46;;;;;;;1.42;1.13;;;22.80;49.50;;;;;;5047359;28;20493;-57
2021/05/29 08:18:16;;;;;;;1.65;1.33;;;22.80;49.40;;;;;;5044603;28;20056;-57
2021/05/29 08:20:48;;;;;;;2.08;1.02;;;22.80;49.30;;;;;;5054194;28;20060;-57
2021/05/29 08:23:16;;;;;;;1.30;1.05;;;22.80;49.30;;;;;;5053066;28;20500;-57
2021/05/29 08:25:43;;;;;;;1.55;1.00;;;22.90;49.30;;;;;;5053200;28;20114;-55
2021/05/29 08:28:10;;;;;;;1.77;1.05;;;22.90;49.20;;;;;;5052942;28;20048;-55
2021/05/29 08:30:37;;;;;;;2.92;1.10;;;22.90;49.20;;;;;;5054102;28;20488;-57
2021/05/29 08:33:07;;;;;;;1.92;1.20;;;22.90;49.10;;;;;;5051223;28;20515;-58
2021/05/29 08:35:35;;;;;;;1.40;1.10;;;22.90;49.10;;;;;;5036127;28;20084;-57
2021/05/29 08:38:04;;;;;;;1.75;1.10;;;22.90;49.10;;;;;;5036686;28;20049;-58
2021/05/29 08:40:32;;;;;;;1.80;1.40;;;22.90;49.10;;;;;;5068463;28;20041;-57
2021/05/29 08:42:59;;;;;;;2.10;1.13;;;22.90;49.10;;;;;;5035692;28;20192;-58
2021/05/29 08:45:26;;;;;;;1.98;1.08;;;22.90;49.10;;;;;;5034372;28;20090;-58
2021/05/29 08:47:55;;;;;;;2.08;1.23;;;22.80;49.10;;;;;;5052071;28;20044;-57
2021/05/29 08:50:22;;;;;;;1.23;1.10;;;22.80;49.20;;;;;;5035927;28;20049;-57
2021/05/29 08:52:50;;;;;;;2.08;1.10;;;22.80;49.30;;;;;;5034865;28;20085;-56
2021/05/29 08:55:18;;;;;;;1.48;1.08;;;22.70;49.30;;;;;;5051955;28;20087;-59
2021/05/29 08:57:49;;;;;;;1.10;0.90;;;22.70;49.40;;;;;;5066706;28;20102;-56
2021/05/29 09:00:26;;;;;;;1.35;1.00;;;22.70;49.50;;;;;;5053632;28;20102;-58
2021/05/29 09:03:05;;;;;;;1.55;1.00;;;22.70;49.50;;;;;;5052649;28;20408;-58
2021/05/29 09:05:40;;;;;;;1.38;0.88;;;22.70;49.50;;;;;;5052181;28;20071;-55
2021/05/29 09:08:10;;;;;;;1.90;1.05;;;22.70;49.50;;;;;;5048035;28;20072;-57
2021/05/29 09:10:45;;;;;;;1.40;1.00;;;22.70;49.50;;;;;;5053393;28;20489;-57
2021/05/29 09:13:14;;;;;;;1.10;1.00;;;22.70;49.50;;;;;;5038728;28;20056;-57
2021/05/29 09:16:00;;;;;;;2.83;1.20;;;22.70;49.60;;;;;;5050517;28;20052;-57
2021/05/29 09:18:51;;;;;;;2.22;1.00;;;22.70;49.60;;;;;;5052435;28;20131;-57
2021/05/29 09:21:28;;;;;;;1.70;0.88;;;22.60;49.60;;;;;;5051846;28;20102;-56
2021/05/29 09:24:03;;;;;;;1.35;1.25;;;22.60;49.60;;;;;;5051384;28;20045;-57
2021/05/29 09:26:55;;;;;;;2.10;1.23;;;22.60;49.70;;;;;;5052261;28;20041;-57
2021/05/29 09:29:29;;;;;;;1.08;0.82;;;22.60;49.70;;;;;;5036181;28;20045;-56
2021/05/29 09:32:07;;;;;;;1.25;1.00;;;22.60;49.70;;;;;;5051363;28;20041;-56
2021/05/29 09:34:44;;;;;;;1.45;1.08;;;22.60;49.70;;;;;;5051626;28;20091;-57
2021/05/29 09:37:14;;;;;;;1.40;1.10;;;22.60;49.70;;;;;;5036966;28;20103;-57
2021/05/29 09:39:47;;;;;;;1.70;1.15;;;22.60;49.60;;;;;;5052377;28;20045;-57
2021/05/29 09:42:17;;;;;;;1.20;1.00;;;22.70;49.60;;;;;;5037229;28;20049;-57
2021/05/29 09:44:46;;;;;;;2.15;1.02;;;22.70;49.60;;;;;;5053165;28;20044;-56
2021/05/29 09:47:15;;;;;;;1.30;0.90;;;22.70;49.50;;;;;;5035840;28;20128;-57
2021/05/29 09:49:57;;;;;;;1.73;1.08;;;22.70;49.50;;;;;;5038384;28;20084;-56
2021/05/29 09:52:39;;;;;;;1.02;0.90;;;22.70;49.50;;;;;;5039325;28;20056;-57
2021/05/29 09:55:13;;;;;;;1.40;1.00;;;22.70;49.40;;;;;;5040093;28;20417;-57
2021/05/29 09:57:51;;;;;;;;;;;22.70;49.30;;;;;;5042743;28;20158;-57
2021/05/29 10:00:19;;;;;;;1.75;1.20;;;22.70;49.30;;;;;;5041735;28;19974;-57
2021/05/29 10:03:06;;;;;;;1.75;1.10;;;22.70;49.10;;;;;;5055841;28;20528;-57
2021/05/29 10:05:35;;;;;;;1.60;1.08;;;22.80;49.10;;;;;;5054773;28;20053;-57
2021/05/29 10:08:06;;;;;;;2.35;1.17;;;22.70;49.10;;;;;;5055627;28;20049;-57
2021/05/29 10:10:33;;;;;;;1.67;1.00;;;22.70;49.10;;;;;;5056727;28;20045;-59
2021/05/29 10:13:03;;;;;;;2.63;1.27;;;22.70;49.10;;;;;;5054899;28;20044;-57
2021/05/29 10:15:31;;;;;;;1.10;1.00;;;22.70;49.10;;;;;;5056572;28;20103;-57
2021/05/29 10:18:03;;;;;;;0.80;0.80;;;22.70;49.10;;;;;;5038455;28;20049;-58
2021/05/29 10:20:32;;;;;;;2.13;1.10;;;22.70;49.10;;;;;;5055874;28;20052;-58
2021/05/29 10:23:00;;;;;;;1.25;1.00;;;22.70;49.10;;;;;;5037862;28;20497;-57
2021/05/29 10:25:27;;;;;;;1.50;1.10;;;22.80;48.90;;;;;;5054655;28;20045;-58
2021/05/29 10:27:56;;;;;;;1.25;0.82;;;22.80;48.80;;;;;;5055919;28;20107;-58
2021/05/29 10:30:25;;;;;;;2.00;1.10;;;22.80;48.80;;;;;;5055857;28;20049;-57
2021/05/29 10:33:19;;;;;;;0.98;0.90;;;22.90;48.80;;;;;;5055313;28;20081;-57
2021/05/29 10:35:47;;;;;;;;;;;22.90;48.70;;;;;;5039267;28;20056;-57
2021/05/29 10:38:16;;;;;;;1.80;1.00;;;22.80;48.60;;;;;;5055671;28;19975;-57
2021/05/29 10:40:48;;;;;;;1.30;0.93;;;22.80;48.70;;;;;;5056531;28;20052;-57
2021/05/29 10:43:20;;;;;;;1.08;0.93;;;22.80;48.60;;;;;;5039452;28;20527;-58
2021/05/29 10:45:51;;;;;;;1.60;1.10;;;22.80;48.60;;;;;;5054296;28;20475;-57
2021/05/29 10:48:24;;;;;;;1.45;1.15;;;22.80;48.50;;;;;;5055020;28;20049;-57
2021/05/29 10:50:55;;;;;;;2.67;1.40;;;22.80;48.50;;;;;;5054787;28;20052;-58
2021/05/29 10:53:39;;;;;;;1.42;1.02;;;22.80;48.50;;;;;;5040248;28;20057;-57
2021/05/29 10:56:17;;;;;;;1.67;1.40;;;22.70;48.50;;;;;;5038533;28;20493;-58
2021/05/29 10:59:10;;;;;;;1.38;0.95;;;22.70;48.50;;;;;;5038224;28;20057;-58
2021/05/29 11:01:42;;;;;;;1.30;0.90;;;22.70;48.70;;;;;;5038925;28;20443;-59
2021/05/29 11:04:18;;;;;;;1.83;1.20;;;22.60;48.70;;;;;;5037481;28;20054;-58
2021/05/29 11:06:54;;;;;;;1.88;1.00;;;22.50;48.80;;;;;;5038244;28;20045;-58
2021/05/29 11:09:30;;;;;;;1.25;1.08;;;22.50;48.90;;;;;;5039027;28;20041;-58
2021/05/29 11:11:59;;;;;;;2.22;1.10;;;22.40;49.00;;;;;;5038586;28;20071;-57
2021/05/29 11:14:28;;;;;;;2.70;1.17;;;22.40;49.10;;;;;;5055011;28;20045;-57
2021/05/29 11:16:56;;;;;;;1.17;1.00;;;22.40;49.30;;;;;;5053873;28;20493;-57
2021/05/29 11:19:26;;;;;;;1.27;1.05;;;22.30;49.30;;;;;;5054660;28;20040;-56
2021/05/29 11:22:28;;;;;;;1.25;0.90;;;22.30;49.50;;;;;;5052503;28;20049;-57
2021/05/29 11:24:59;;;;;;;2.22;1.10;;;22.20;49.50;;;;;;5033174;28;20041;-57
2021/05/29 11:27:28;;;;;;;1.38;1.10;;;22.20;49.70;;;;;;5039605;28;20392;-58
2021/05/29 11:30:12;;;;;;;1.58;1.10;;;22.10;49.70;;;;;;5054233;28;20122;-58
2021/05/29 11:35:24;;;;;;;1.50;1.05;;;22.10;49.80;;;;;;5038902;28;20388;-58
2021/05/29 11:37:55;;;;;;;1.10;0.98;;;22.10;49.90;;;;;;5037913;28;20041;-58
2021/05/29 11:40:38;;;;;;;1.25;0.93;;;22.10;49.90;;;;;;5039121;28;20059;-57
2021/05/29 11:43:05;;;;;;;2.25;0.85;;;22.10;49.80;;;;;;5051730;28;20451;-58
2021/05/29 11:45:32;;;;;;;1.73;1.10;;;22.20;50.00;;;;;;5043051;28;20045;-58
2021/05/29 11:47:59;;;;;;;3.90;1.00;;;22.20;50.00;;;;;;5051254;28;20041;-57
2021/05/29 11:50:27;;;;;;;1.85;1.08;;;22.30;49.90;;;;;;5037336;28;20075;-58
2021/05/29 11:52:54;;;;;;;3.85;0.95;;;22.30;49.80;;;;;;5054470;28;20053;-57
2021/05/29 11:55:22;;;;;;;2.15;1.10;;;22.40;50.00;;;;;;5053707;28;20045;-56
2021/05/29 11:58:00;;;;;;;2.45;0.98;;;22.40;49.80;;;;;;5052771;28;20099;-58
2021/05/29 12:00:28;;;;;;;1.27;0.90;;;22.50;49.70;;;;;;5052498;28;20111;-58
2021/05/29 12:02:56;;;;;;;2.78;0.88;;;22.50;49.70;;;;;;5051259;28;20048;-58
2021/05/29 12:05:38;;;;;;;2.55;0.85;;;22.50;49.60;;;;;;5052859;28;20055;-55
2021/05/29 12:08:09;;;;;;;5.68;1.20;;;22.50;49.70;;;;;;5045379;28;20405;-58
2021/05/29 12:10:51;;;;;;;1.90;1.00;;;22.50;49.70;;;;;;5034851;28;20049;-57
2021/05/29 12:13:30;;;;;;;2.78;1.00;;;22.50;49.80;;;;;;5052483;28;20053;-57
2021/05/29 12:16:02;;;;;;;1.00;0.80;;;22.50;50.00;;;;;;5052844;28;20049;-57
2021/05/29 12:18:40;;;;;;;2.25;1.15;;;22.50;50.00;;;;;;5036040;28;20077;-58
2021/05/29 12:21:08;;;;;;;1.80;1.05;;;22.40;50.10;;;;;;5035570;28;20108;-58
2021/05/29 12:23:54;;;;;;;1.98;1.10;;;22.40;50.20;;;;;;5036180;28;20103;-57
2021/05/29 12:26:22;;;;;;;2.70;0.98;;;22.40;50.40;;;;;;5040926;28;20053;-56
2021/05/29 12:28:50;;;;;;;4.28;1.23;;;22.40;50.40;;;;;;5053968;28;20041;-57
2021/05/29 12:31:21;;;;;;;3.28;1.02;;;22.30;50.40;;;;;;5036779;28;20046;-58
2021/05/29 12:34:08;;;;;;;1.83;1.00;;;22.30;50.40;;;;;;5035202;28;20527;-57
2021/05/29 12:36:59;;;;;;;2.10;1.17;;;22.40;50.50;;;;;;5036097;28;20060;-58
2021/05/29 12:39:48;;;;;;;3.83;1.23;;;22.30;50.40;;;;;;5046032;28;20049;-57
2021/05/29 12:42:34;;;;;;;3.25;1.25;;;22.30;50.50;;;;;;5036909;28;20046;-58
2021/05/29 12:45:26;;;;;;;1.58;0.95;;;22.30;50.60;;;;;;5041691;28;20045;-57
2021/05/29 12:48:06;;;;;;;5.38;1.42;;;22.30;50.70;;;;;;5054279;28;20037;-57
2021/05/29 12:51:09;;;;;;;3.70;1.45;;;22.30;50.80;;;;;;5043588;28;20050;-57
2021/05/29 12:53:49;;;;;;;6.32;2.10;;;22.20;50.80;;;;;;5063846;28;20065;-57
2021/05/29 12:56:18;;;;;;;5.03;2.33;;;22.20;50.80;;;;;;5051500;28;20103;-58
2021/05/29 12:59:03;;;;;;;5.85;2.85;;;22.20;50.90;;;;;;5051312;28;20548;-58
2021/05/29 13:01:47;;;;;;;8.77;3.43;;;22.20;50.90;;;;;;5039753;28;20057;-57
2021/05/29 13:07:25;;;;;;;8.60;4.38;;;22.30;51.00;;;;;;5043934;28;20053;-58
2021/05/29 13:10:06;;;;;;;7.50;4.47;;;22.30;50.90;;;;;;5051888;28;20053;-56
2021/05/29 13:12:35;;;;;;;11.45;4.15;;;22.30;50.80;;;;;;5050444;28;20077;-56
2021/05/29 13:15:17;;;;;;;10.32;4.68;;;22.40;50.80;;;;;;5034238;28;20137;-58
2021/05/29 13:17:45;;;;;;;12.15;4.55;;;22.40;50.60;;;;;;5035270;28;20040;-57
2021/05/29 13:20:21;;;;;;;11.73;4.68;;;22.50;50.60;;;;;;5035123;28;20045;-58
2021/05/29 13:22:58;;;;;;;7.72;4.78;;;22.60;51.10;;;;;;5034813;28;20060;-58